sensor_id;sensor_type;location;lat;lon;timestamp;pressure;altitude;pressure_sealevel;temperature;humidity
64080;BME280;51042;49.696;10.808;2023-01-31T00:00:04;99022.63;;;0.86;100.00
64080;BME280;51042;49.696;10.808;2023-01-31T00:02:31;99023.25;;;0.79;100.00
64080;BME280;51042;49.696;10.808;2023-01-31T00:04:56;99007.34;;;0.74;100.00
64080;BME280;51042;49.696;10.808;2023-01-31T00:07:22;99025.41;;;0.70;100.00
64080;BME280;51042;49.696;10.808;2023-01-31T00:09:47;99025.25;;;0.63;100.00
64080;BME280;51042;49.696;10.808;2023-01-31T00:12:12;99027.78;;;0.56;100.00
64080;BME280;51042;49.696;10.808;2023-01-31T00:14:37;99022.31;;;0.53;100.00
64080;BME280;51042;49.696;10.808;2023-01-31T00:17:02;99032.50;;;0.59;100.00
64080;BME280;51042;49.696;10.808;2023-01-31T00:19:27;99030.66;;;0.63;100.00
64080;BME280;51042;49.696;10.808;2023-01-31T00:21:53;99032.41;;;0.56;100.00
64080;BME280;51042;49.696;10.808;2023-01-31T00:24:18;99036.94;;;0.52;100.00
64080;BME280;51042;49.696;10.808;2023-01-31T00:26:43;99032.25;;;0.49;100.00
64080;BME280;51042;49.696;10.808;2023-01-31T00:29:08;99033.66;;;0.43;100.00
64080;BME280;51042;49.696;10.808;2023-01-31T00:31:34;99028.34;;;0.46;100.00
64080;BME280;51042;49.696;10.808;2023-01-31T00:33:59;99032.16;;;0.45;100.00
64080;BME280;51042;49.696;10.808;2023-01-31T00:36:28;99037.63;;;0.49;100.00
64080;BME280;51042;49.696;10.808;2023-01-31T00:38:55;99048.16;;;0.54;100.00
64080;BME280;51042;49.696;10.808;2023-01-31T00:41:22;99041.84;;;0.46;100.00
64080;BME280;51042;49.696;10.808;2023-01-31T00:43:48;99043.25;;;0.40;100.00
64080;BME280;51042;49.696;10.808;2023-01-31T00:46:14;99033.06;;;0.33;100.00
64080;BME280;51042;49.696;10.808;2023-01-31T00:48:39;99053.88;;;0.33;100.00
64080;BME280;51042;49.696;10.808;2023-01-31T00:51:04;99046.47;;;0.30;100.00
64080;BME280;51042;49.696;10.808;2023-01-31T00:53:29;99042.28;;;0.32;100.00
64080;BME280;51042;49.696;10.808;2023-01-31T00:55:59;99040.81;;;0.35;100.00
64080;BME280;51042;49.696;10.808;2023-01-31T00:58:25;99040.44;;;0.36;100.00
64080;BME280;51042;49.696;10.808;2023-01-31T01:00:50;99036.97;;;0.36;100.00
64080;BME280;51042;49.696;10.808;2023-01-31T01:03:15;99036.13;;;0.32;100.00
64080;BME280;51042;49.696;10.808;2023-01-31T01:05:40;99039.09;;;0.27;100.00
64080;BME280;51042;49.696;10.808;2023-01-31T01:08:06;99037.63;;;0.29;100.00
64080;BME280;51042;49.696;10.808;2023-01-31T01:10:31;99040.47;;;0.21;100.00
64080;BME280;51042;49.696;10.808;2023-01-31T01:12:56;99045.44;;;0.19;100.00
64080;BME280;51042;49.696;10.808;2023-01-31T01:15:21;99030.91;;;0.23;100.00
64080;BME280;51042;49.696;10.808;2023-01-31T01:17:47;99033.69;;;0.27;100.00
64080;BME280;51042;49.696;10.808;2023-01-31T01:20:12;99025.59;;;0.27;100.00
64080;BME280;51042;49.696;10.808;2023-01-31T01:22:37;99048.50;;;0.17;100.00
64080;BME280;51042;49.696;10.808;2023-01-31T01:25:03;99050.31;;;0.13;100.00
64080;BME280;51042;49.696;10.808;2023-01-31T01:27:28;99056.50;;;0.14;100.00
64080;BME280;51042;49.696;10.808;2023-01-31T01:29:54;99055.53;;;0.06;100.00
64080;BME280;51042;49.696;10.808;2023-01-31T01:32:19;99061.56;;;-0.01;100.00
64080;BME280;51042;49.696;10.808;2023-01-31T01:34:44;99061.81;;;-0.06;100.00
64080;BME280;51042;49.696;10.808;2023-01-31T01:37:09;99065.56;;;-0.10;100.00
64080;BME280;51042;49.696;10.808;2023-01-31T01:39:39;99058.97;;;-0.13;100.00
64080;BME280;51042;49.696;10.808;2023-01-31T01:42:04;99056.69;;;-0.11;100.00
64080;BME280;51042;49.696;10.808;2023-01-31T01:44:41;99050.59;;;-0.08;100.00
64080;BME280;51042;49.696;10.808;2023-01-31T01:47:13;99067.22;;;-0.06;100.00
64080;BME280;51042;49.696;10.808;2023-01-31T01:49:40;99065.66;;;-0.07;100.00
64080;BME280;51042;49.696;10.808;2023-01-31T01:52:06;99066.53;;;-0.03;100.00
64080;BME280;51042;49.696;10.808;2023-01-31T01:54:34;99079.66;;;-0.01;100.00
64080;BME280;51042;49.696;10.808;2023-01-31T01:57:01;99088.63;;;0.03;100.00
64080;BME280;51042;49.696;10.808;2023-01-31T01:59:32;99081.41;;;0.07;100.00
64080;BME280;51042;49.696;10.808;2023-01-31T02:01:58;99083.31;;;0.07;100.00
64080;BME280;51042;49.696;10.808;2023-01-31T02:04:28;99079.81;;;0.06;100.00
64080;BME280;51042;49.696;10.808;2023-01-31T02:06:55;99075.84;;;0.16;100.00
64080;BME280;51042;49.696;10.808;2023-01-31T02:09:26;99065.81;;;0.16;100.00
64080;BME280;51042;49.696;10.808;2023-01-31T02:11:54;99068.88;;;0.15;100.00
64080;BME280;51042;49.696;10.808;2023-01-31T02:14:20;99064.41;;;0.07;100.00
64080;BME280;51042;49.696;10.808;2023-01-31T02:16:45;99063.75;;;0.10;100.00
64080;BME280;51042;49.696;10.808;2023-01-31T02:19:19;99083.41;;;0.10;100.00
64080;BME280;51042;49.696;10.808;2023-01-31T02:32:19;99087.91;;;0.06;100.00
64080;BME280;51042;49.696;10.808;2023-01-31T02:37:38;99105.88;;;-0.02;100.00
64080;BME280;51042;49.696;10.808;2023-01-31T02:40:10;99108.91;;;-0.03;100.00
64080;BME280;51042;49.696;10.808;2023-01-31T02:42:53;99099.56;;;-0.06;100.00
64080;BME280;51042;49.696;10.808;2023-01-31T02:45:33;99102.28;;;-0.06;100.00
64080;BME280;51042;49.696;10.808;2023-01-31T02:50:44;99092.13;;;-0.12;100.00
64080;BME280;51042;49.696;10.808;2023-01-31T02:53:17;99102.13;;;-0.13;100.00
64080;BME280;51042;49.696;10.808;2023-01-31T02:58:32;99108.97;;;-0.15;100.00
64080;BME280;51042;49.696;10.808;2023-01-31T03:00:59;99111.41;;;-0.10;100.00
64080;BME280;51042;49.696;10.808;2023-01-31T03:03:28;99117.16;;;-0.12;100.00
64080;BME280;51042;49.696;10.808;2023-01-31T03:11:34;99124.91;;;-0.10;100.00
64080;BME280;51042;49.696;10.808;2023-01-31T03:16:37;99136.22;;;-0.05;100.00
64080;BME280;51042;49.696;10.808;2023-01-31T03:19:33;99127.25;;;0.07;100.00
64080;BME280;51042;49.696;10.808;2023-01-31T03:22:01;99140.00;;;0.22;100.00
64080;BME280;51042;49.696;10.808;2023-01-31T03:24:28;99152.97;;;0.32;100.00
64080;BME280;51042;49.696;10.808;2023-01-31T03:26:55;99158.19;;;0.41;100.00
64080;BME280;51042;49.696;10.808;2023-01-31T03:29:21;99162.53;;;0.46;100.00
64080;BME280;51042;49.696;10.808;2023-01-31T03:31:57;99157.59;;;0.48;100.00
64080;BME280;51042;49.696;10.808;2023-01-31T03:34:25;99145.63;;;0.49;100.00
64080;BME280;51042;49.696;10.808;2023-01-31T03:44:22;99164.81;;;0.28;100.00
64080;BME280;51042;49.696;10.808;2023-01-31T03:46:50;99165.94;;;0.27;100.00
64080;BME280;51042;49.696;10.808;2023-01-31T03:49:17;99174.47;;;0.29;100.00
64080;BME280;51042;49.696;10.808;2023-01-31T03:51:45;99172.78;;;0.24;100.00
64080;BME280;51042;49.696;10.808;2023-01-31T03:54:18;99180.03;;;0.20;100.00
64080;BME280;51042;49.696;10.808;2023-01-31T03:56:46;99182.06;;;0.23;100.00
64080;BME280;51042;49.696;10.808;2023-01-31T03:59:16;99175.88;;;0.23;100.00
64080;BME280;51042;49.696;10.808;2023-01-31T04:01:44;99179.94;;;0.17;100.00
64080;BME280;51042;49.696;10.808;2023-01-31T04:04:17;99190.03;;;0.20;100.00
64080;BME280;51042;49.696;10.808;2023-01-31T04:06:45;99190.56;;;0.25;100.00
64080;BME280;51042;49.696;10.808;2023-01-31T04:09:11;99187.59;;;0.30;100.00
64080;BME280;51042;49.696;10.808;2023-01-31T04:11:39;99198.91;;;0.36;100.00
64080;BME280;51042;49.696;10.808;2023-01-31T04:14:05;99204.63;;;0.47;100.00
64080;BME280;51042;49.696;10.808;2023-01-31T04:16:30;99200.16;;;0.54;100.00
64080;BME280;51042;49.696;10.808;2023-01-31T04:18:55;99210.34;;;0.61;100.00
64080;BME280;51042;49.696;10.808;2023-01-31T04:21:21;99202.34;;;0.64;100.00
64080;BME280;51042;49.696;10.808;2023-01-31T04:23:46;99197.38;;;0.66;100.00
64080;BME280;51042;49.696;10.808;2023-01-31T04:26:11;99198.25;;;0.70;100.00
64080;BME280;51042;49.696;10.808;2023-01-31T04:28:36;99199.81;;;0.71;100.00
64080;BME280;51042;49.696;10.808;2023-01-31T04:31:02;99203.03;;;0.77;100.00
64080;BME280;51042;49.696;10.808;2023-01-31T04:33:27;99196.47;;;0.78;100.00
64080;BME280;51042;49.696;10.808;2023-01-31T04:35:52;99196.84;;;0.76;100.00
64080;BME280;51042;49.696;10.808;2023-01-31T04:38:17;99188.22;;;0.71;100.00
64080;BME280;51042;49.696;10.808;2023-01-31T04:40:43;99185.44;;;0.67;100.00
64080;BME280;51042;49.696;10.808;2023-01-31T04:43:08;99178.81;;;0.65;100.00
64080;BME280;51042;49.696;10.808;2023-01-31T04:45:33;99184.47;;;0.60;100.00
64080;BME280;51042;49.696;10.808;2023-01-31T04:47:58;99184.06;;;0.58;100.00
64080;BME280;51042;49.696;10.808;2023-01-31T04:50:23;99188.66;;;0.57;100.00
64080;BME280;51042;49.696;10.808;2023-01-31T04:52:49;99181.44;;;0.61;100.00
64080;BME280;51042;49.696;10.808;2023-01-31T04:55:14;99183.84;;;0.66;100.00
64080;BME280;51042;49.696;10.808;2023-01-31T04:57:40;99187.88;;;0.72;100.00
64080;BME280;51042;49.696;10.808;2023-01-31T05:00:05;99191.53;;;0.80;100.00
64080;BME280;51042;49.696;10.808;2023-01-31T05:02:31;99190.47;;;0.85;100.00
64080;BME280;51042;49.696;10.808;2023-01-31T05:04:56;99193.69;;;0.90;100.00
64080;BME280;51042;49.696;10.808;2023-01-31T05:07:21;99198.41;;;0.93;100.00
64080;BME280;51042;49.696;10.808;2023-01-31T05:09:46;99189.94;;;0.95;100.00
64080;BME280;51042;49.696;10.808;2023-01-31T05:12:11;99186.53;;;0.98;100.00
64080;BME280;51042;49.696;10.808;2023-01-31T05:14:37;99180.44;;;1.01;100.00
64080;BME280;51042;49.696;10.808;2023-01-31T05:17:02;99185.47;;;1.02;100.00
64080;BME280;51042;49.696;10.808;2023-01-31T05:19:27;99181.22;;;1.01;100.00
64080;BME280;51042;49.696;10.808;2023-01-31T05:21:52;99188.94;;;1.03;100.00
64080;BME280;51042;49.696;10.808;2023-01-31T05:24:24;99178.16;;;1.03;100.00
64080;BME280;51042;49.696;10.808;2023-01-31T05:26:50;99177.00;;;1.04;100.00
64080;BME280;51042;49.696;10.808;2023-01-31T05:29:16;99173.19;;;1.05;100.00
64080;BME280;51042;49.696;10.808;2023-01-31T05:31:42;99178.25;;;1.06;100.00
64080;BME280;51042;49.696;10.808;2023-01-31T05:34:08;99181.28;;;1.05;100.00
64080;BME280;51042;49.696;10.808;2023-01-31T05:36:34;99175.88;;;1.05;100.00
64080;BME280;51042;49.696;10.808;2023-01-31T05:38:59;99172.75;;;1.03;100.00
64080;BME280;51042;49.696;10.808;2023-01-31T05:41:24;99176.16;;;1.00;100.00
64080;BME280;51042;49.696;10.808;2023-01-31T05:43:50;99178.75;;;0.96;100.00
64080;BME280;51042;49.696;10.808;2023-01-31T05:46:15;99182.47;;;0.88;100.00
64080;BME280;51042;49.696;10.808;2023-01-31T05:48:40;99189.16;;;0.78;100.00
64080;BME280;51042;49.696;10.808;2023-01-31T05:51:05;99182.13;;;0.74;100.00
64080;BME280;51042;49.696;10.808;2023-01-31T05:53:30;99180.03;;;0.67;100.00
64080;BME280;51042;49.696;10.808;2023-01-31T05:55:55;99184.56;;;0.63;100.00
64080;BME280;51042;49.696;10.808;2023-01-31T05:58:21;99192.22;;;0.61;100.00
64080;BME280;51042;49.696;10.808;2023-01-31T06:00:46;99190.03;;;0.67;100.00
64080;BME280;51042;49.696;10.808;2023-01-31T06:03:11;99186.94;;;0.65;100.00
64080;BME280;51042;49.696;10.808;2023-01-31T06:05:36;99197.13;;;0.56;100.00
64080;BME280;51042;49.696;10.808;2023-01-31T06:08:04;99201.91;;;0.47;100.00
64080;BME280;51042;49.696;10.808;2023-01-31T06:10:29;99200.22;;;0.42;100.00
64080;BME280;51042;49.696;10.808;2023-01-31T06:12:54;99194.22;;;0.33;100.00
64080;BME280;51042;49.696;10.808;2023-01-31T06:15:19;99194.50;;;0.28;100.00
64080;BME280;51042;49.696;10.808;2023-01-31T06:17:45;99192.84;;;0.23;100.00
64080;BME280;51042;49.696;10.808;2023-01-31T06:20:10;99195.69;;;0.15;100.00
64080;BME280;51042;49.696;10.808;2023-01-31T06:22:35;99193.50;;;0.05;100.00
64080;BME280;51042;49.696;10.808;2023-01-31T06:25:00;99207.41;;;-0.09;100.00
64080;BME280;51042;49.696;10.808;2023-01-31T06:27:25;99198.13;;;-0.24;100.00
64080;BME280;51042;49.696;10.808;2023-01-31T06:29:51;99204.34;;;-0.35;100.00
64080;BME280;51042;49.696;10.808;2023-01-31T06:32:16;99208.31;;;-0.45;100.00
64080;BME280;51042;49.696;10.808;2023-01-31T06:34:41;99203.06;;;-0.54;100.00
64080;BME280;51042;49.696;10.808;2023-01-31T06:37:09;99212.72;;;-0.53;100.00
64080;BME280;51042;49.696;10.808;2023-01-31T06:39:35;99211.84;;;-0.57;100.00
64080;BME280;51042;49.696;10.808;2023-01-31T06:42:00;99210.00;;;-0.53;100.00
64080;BME280;51042;49.696;10.808;2023-01-31T06:44:25;99204.03;;;-0.46;100.00
64080;BME280;51042;49.696;10.808;2023-01-31T06:46:50;99210.22;;;-0.46;100.00
64080;BME280;51042;49.696;10.808;2023-01-31T06:49:15;99210.81;;;-0.52;100.00
64080;BME280;51042;49.696;10.808;2023-01-31T06:51:41;99207.22;;;-0.56;100.00
64080;BME280;51042;49.696;10.808;2023-01-31T06:54:06;99218.25;;;-0.61;100.00
64080;BME280;51042;49.696;10.808;2023-01-31T06:56:31;99217.13;;;-0.60;100.00
64080;BME280;51042;49.696;10.808;2023-01-31T06:58:56;99208.03;;;-0.56;100.00
64080;BME280;51042;49.696;10.808;2023-01-31T07:01:21;99217.53;;;-0.46;100.00
64080;BME280;51042;49.696;10.808;2023-01-31T07:03:48;99216.50;;;-0.42;100.00
64080;BME280;51042;49.696;10.808;2023-01-31T07:06:13;99208.22;;;-0.49;100.00
64080;BME280;51042;49.696;10.808;2023-01-31T07:08:38;99221.16;;;-0.54;100.00
64080;BME280;51042;49.696;10.808;2023-01-31T07:11:04;99225.31;;;-0.57;100.00
64080;BME280;51042;49.696;10.808;2023-01-31T07:13:29;99224.06;;;-0.59;100.00
64080;BME280;51042;49.696;10.808;2023-01-31T07:15:55;99217.56;;;-0.58;100.00
64080;BME280;51042;49.696;10.808;2023-01-31T07:18:20;99215.84;;;-0.51;100.00
64080;BME280;51042;49.696;10.808;2023-01-31T07:20:45;99215.03;;;-0.39;100.00
64080;BME280;51042;49.696;10.808;2023-01-31T07:23:10;99230.94;;;-0.22;100.00
64080;BME280;51042;49.696;10.808;2023-01-31T07:25:35;99232.22;;;-0.04;100.00
64080;BME280;51042;49.696;10.808;2023-01-31T07:28:01;99232.88;;;0.21;100.00
64080;BME280;51042;49.696;10.808;2023-01-31T07:30:27;99240.50;;;0.47;100.00
64080;BME280;51042;49.696;10.808;2023-01-31T07:32:52;99222.91;;;0.69;100.00
64080;BME280;51042;49.696;10.808;2023-01-31T07:35:18;99226.88;;;0.91;100.00
64080;BME280;51042;49.696;10.808;2023-01-31T07:37:43;99221.81;;;1.05;100.00
64080;BME280;51042;49.696;10.808;2023-01-31T07:40:10;99229.81;;;1.17;100.00
64080;BME280;51042;49.696;10.808;2023-01-31T07:42:35;99230.78;;;1.25;100.00
64080;BME280;51042;49.696;10.808;2023-01-31T07:45:01;99223.59;;;1.32;100.00
64080;BME280;51042;49.696;10.808;2023-01-31T07:47:26;99228.66;;;1.34;100.00
64080;BME280;51042;49.696;10.808;2023-01-31T07:49:51;99224.81;;;1.35;100.00
64080;BME280;51042;49.696;10.808;2023-01-31T07:52:16;99233.72;;;1.35;100.00
64080;BME280;51042;49.696;10.808;2023-01-31T07:54:41;99246.09;;;1.36;100.00
64080;BME280;51042;49.696;10.808;2023-01-31T07:57:06;99230.22;;;1.35;100.00
64080;BME280;51042;49.696;10.808;2023-01-31T07:59:32;99233.59;;;1.32;100.00
64080;BME280;51042;49.696;10.808;2023-01-31T08:01:57;99234.78;;;1.31;100.00
64080;BME280;51042;49.696;10.808;2023-01-31T08:04:40;99221.25;;;1.31;100.00
64080;BME280;51042;49.696;10.808;2023-01-31T08:07:06;99222.00;;;1.31;100.00
64080;BME280;51042;49.696;10.808;2023-01-31T08:09:31;99237.88;;;1.33;100.00
64080;BME280;51042;49.696;10.808;2023-01-31T08:11:57;99240.59;;;1.33;100.00
64080;BME280;51042;49.696;10.808;2023-01-31T08:14:22;99246.59;;;1.42;100.00
64080;BME280;51042;49.696;10.808;2023-01-31T08:16:49;99245.75;;;1.57;100.00
64080;BME280;51042;49.696;10.808;2023-01-31T08:19:14;99249.78;;;1.82;100.00
64080;BME280;51042;49.696;10.808;2023-01-31T08:21:40;99252.97;;;2.07;100.00
64080;BME280;51042;49.696;10.808;2023-01-31T08:24:05;99269.00;;;2.16;100.00
64080;BME280;51042;49.696;10.808;2023-01-31T08:26:30;99253.38;;;2.09;100.00
64080;BME280;51042;49.696;10.808;2023-01-31T08:28:56;99259.88;;;2.04;100.00
64080;BME280;51042;49.696;10.808;2023-01-31T08:31:22;99259.53;;;2.06;100.00
64080;BME280;51042;49.696;10.808;2023-01-31T08:33:47;99271.19;;;2.10;100.00
64080;BME280;51042;49.696;10.808;2023-01-31T08:36:16;99268.09;;;2.08;100.00
64080;BME280;51042;49.696;10.808;2023-01-31T08:38:41;99266.38;;;2.00;100.00
64080;BME280;51042;49.696;10.808;2023-01-31T08:41:06;99260.66;;;1.86;100.00
64080;BME280;51042;49.696;10.808;2023-01-31T08:43:32;99251.34;;;1.83;100.00
64080;BME280;51042;49.696;10.808;2023-01-31T08:45:57;99249.34;;;1.80;100.00
64080;BME280;51042;49.696;10.808;2023-01-31T08:48:23;99240.53;;;1.83;100.00
64080;BME280;51042;49.696;10.808;2023-01-31T08:50:48;99242.72;;;1.78;100.00
64080;BME280;51042;49.696;10.808;2023-01-31T08:53:13;99242.72;;;1.78;100.00
64080;BME280;51042;49.696;10.808;2023-01-31T08:55:38;99244.56;;;1.74;100.00
64080;BME280;51042;49.696;10.808;2023-01-31T08:58:03;99246.22;;;1.78;100.00
64080;BME280;51042;49.696;10.808;2023-01-31T09:00:29;99245.44;;;1.78;99.92
64080;BME280;51042;49.696;10.808;2023-01-31T09:02:58;99245.56;;;1.85;99.60
64080;BME280;51042;49.696;10.808;2023-01-31T09:05:24;99246.19;;;1.97;99.94
64080;BME280;51042;49.696;10.808;2023-01-31T09:07:50;99248.66;;;2.02;98.17
64080;BME280;51042;49.696;10.808;2023-01-31T09:10:16;99241.00;;;2.08;98.72
64080;BME280;51042;49.696;10.808;2023-01-31T09:12:41;99237.94;;;2.10;98.01
64080;BME280;51042;49.696;10.808;2023-01-31T09:15:07;99241.78;;;2.09;97.99
64080;BME280;51042;49.696;10.808;2023-01-31T09:17:32;99237.81;;;2.02;97.58
64080;BME280;51042;49.696;10.808;2023-01-31T09:19:57;99233.53;;;2.01;97.65
64080;BME280;51042;49.696;10.808;2023-01-31T09:22:22;99240.63;;;2.10;98.04
64080;BME280;51042;49.696;10.808;2023-01-31T09:24:48;99238.72;;;2.10;97.21
64080;BME280;51042;49.696;10.808;2023-01-31T09:27:13;99232.91;;;2.08;96.80
64080;BME280;51042;49.696;10.808;2023-01-31T09:29:39;99235.09;;;2.02;97.30
64080;BME280;51042;49.696;10.808;2023-01-31T09:32:04;99238.72;;;2.10;97.39
64080;BME280;51042;49.696;10.808;2023-01-31T09:34:29;99233.72;;;2.12;96.37
64080;BME280;51042;49.696;10.808;2023-01-31T09:36:55;99248.25;;;2.23;96.77
64080;BME280;51042;49.696;10.808;2023-01-31T09:39:22;99251.09;;;2.30;96.91
64080;BME280;51042;49.696;10.808;2023-01-31T09:41:48;99245.16;;;2.44;96.90
64080;BME280;51042;49.696;10.808;2023-01-31T09:46:42;99244.56;;;2.54;95.87
64080;BME280;51042;49.696;10.808;2023-01-31T09:49:19;99253.78;;;2.50;96.33
64080;BME280;51042;49.696;10.808;2023-01-31T09:51:47;99257.31;;;2.54;95.11
64080;BME280;51042;49.696;10.808;2023-01-31T09:54:18;99241.28;;;2.45;95.21
64080;BME280;51042;49.696;10.808;2023-01-31T09:56:47;99230.34;;;2.38;94.55
64080;BME280;51042;49.696;10.808;2023-01-31T09:59:22;99243.22;;;2.44;95.19
64080;BME280;51042;49.696;10.808;2023-01-31T10:01:53;99238.50;;;2.61;95.56
64080;BME280;51042;49.696;10.808;2023-01-31T10:07:05;99223.84;;;2.65;94.25
64080;BME280;51042;49.696;10.808;2023-01-31T10:09:35;99227.81;;;2.71;93.48
64080;BME280;51042;49.696;10.808;2023-01-31T10:14:45;99225.53;;;2.73;91.80
64080;BME280;51042;49.696;10.808;2023-01-31T10:22:07;99203.06;;;2.73;91.08
64080;BME280;51042;49.696;10.808;2023-01-31T10:24:42;99212.19;;;2.61;91.57
64080;BME280;51042;49.696;10.808;2023-01-31T10:30:02;99213.44;;;2.67;92.10
64080;BME280;51042;49.696;10.808;2023-01-31T10:32:33;99206.84;;;2.68;92.60
64080;BME280;51042;49.696;10.808;2023-01-31T10:35:01;99193.44;;;2.75;91.98
64080;BME280;51042;49.696;10.808;2023-01-31T10:40:04;99187.34;;;2.82;90.08
64080;BME280;51042;49.696;10.808;2023-01-31T10:42:31;99190.28;;;2.96;90.03
64080;BME280;51042;49.696;10.808;2023-01-31T10:47:28;99170.03;;;3.16;87.99
64080;BME280;51042;49.696;10.808;2023-01-31T10:49:55;99183.19;;;3.14;88.04
64080;BME280;51042;49.696;10.808;2023-01-31T10:52:28;99190.09;;;3.12;88.39
64080;BME280;51042;49.696;10.808;2023-01-31T10:55:01;99175.41;;;3.13;88.43
64080;BME280;51042;49.696;10.808;2023-01-31T10:57:28;99169.72;;;3.21;88.32
64080;BME280;51042;49.696;10.808;2023-01-31T10:59:53;99175.31;;;3.36;87.29
64080;BME280;51042;49.696;10.808;2023-01-31T11:02:20;99166.59;;;3.83;86.51
64080;BME280;51042;49.696;10.808;2023-01-31T11:04:47;99152.66;;;4.21;82.61
64080;BME280;51042;49.696;10.808;2023-01-31T11:07:13;99151.25;;;4.41;81.18
64080;BME280;51042;49.696;10.808;2023-01-31T11:09:40;99146.25;;;4.43;81.09
64080;BME280;51042;49.696;10.808;2023-01-31T11:12:07;99141.66;;;4.55;81.71
64080;BME280;51042;49.696;10.808;2023-01-31T11:14:32;99139.66;;;4.44;81.56
64080;BME280;51042;49.696;10.808;2023-01-31T11:17:06;99138.03;;;4.36;81.00
64080;BME280;51042;49.696;10.808;2023-01-31T11:19:33;99126.53;;;4.09;80.80
64080;BME280;51042;49.696;10.808;2023-01-31T11:21:59;99111.84;;;4.14;81.27
64080;BME280;51042;49.696;10.808;2023-01-31T11:24:27;99113.56;;;3.92;81.62
64080;BME280;51042;49.696;10.808;2023-01-31T11:26:57;99115.69;;;3.73;83.32
64080;BME280;51042;49.696;10.808;2023-01-31T11:29:27;99112.97;;;3.73;83.36
64080;BME280;51042;49.696;10.808;2023-01-31T11:31:53;99116.81;;;3.68;84.46
64080;BME280;51042;49.696;10.808;2023-01-31T11:34:21;99111.09;;;3.43;84.14
64080;BME280;51042;49.696;10.808;2023-01-31T11:36:47;99109.41;;;3.32;85.28
64080;BME280;51042;49.696;10.808;2023-01-31T11:39:26;99099.94;;;3.18;86.53
64080;BME280;51042;49.696;10.808;2023-01-31T11:41:51;99103.47;;;3.22;87.86
64080;BME280;51042;49.696;10.808;2023-01-31T11:44:18;99098.34;;;3.14;88.27
64080;BME280;51042;49.696;10.808;2023-01-31T11:49:09;99092.94;;;2.87;89.46
64080;BME280;51042;49.696;10.808;2023-01-31T11:51:35;99099.72;;;2.74;90.14
64080;BME280;51042;49.696;10.808;2023-01-31T11:54:00;99088.38;;;2.65;91.16
64080;BME280;51042;49.696;10.808;2023-01-31T11:56:29;99075.63;;;2.66;91.30
64080;BME280;51042;49.696;10.808;2023-01-31T11:58:59;99070.97;;;2.66;92.06
64080;BME280;51042;49.696;10.808;2023-01-31T12:01:31;99068.94;;;2.60;92.19
64080;BME280;51042;49.696;10.808;2023-01-31T12:03:59;99064.19;;;2.53;92.85
64080;BME280;51042;49.696;10.808;2023-01-31T12:06:27;99069.13;;;2.44;93.51
64080;BME280;51042;49.696;10.808;2023-01-31T12:08:53;99069.03;;;2.40;94.15
64080;BME280;51042;49.696;10.808;2023-01-31T12:13:49;99077.91;;;2.37;95.11
64080;BME280;51042;49.696;10.808;2023-01-31T12:16:24;99071.72;;;2.37;95.70
64080;BME280;51042;49.696;10.808;2023-01-31T12:21:47;99060.09;;;2.36;95.53
64080;BME280;51042;49.696;10.808;2023-01-31T12:26:53;99068.09;;;2.29;96.14
64080;BME280;51042;49.696;10.808;2023-01-31T12:32:00;99049.47;;;2.24;96.20
64080;BME280;51042;49.696;10.808;2023-01-31T12:40:03;99049.09;;;2.26;96.09
64080;BME280;51042;49.696;10.808;2023-01-31T12:50:27;99081.75;;;2.36;96.20
64080;BME280;51042;49.696;10.808;2023-01-31T12:58:14;99068.41;;;2.24;97.02
64080;BME280;51042;49.696;10.808;2023-01-31T13:03:17;99067.59;;;2.20;97.07
64080;BME280;51042;49.696;10.808;2023-01-31T13:06:01;99046.31;;;2.22;97.41
64080;BME280;51042;49.696;10.808;2023-01-31T13:08:29;99039.78;;;2.23;97.08
64080;BME280;51042;49.696;10.808;2023-01-31T13:13:32;99023.56;;;2.27;97.03
64080;BME280;51042;49.696;10.808;2023-01-31T13:16:00;99007.38;;;2.30;97.07
64080;BME280;51042;49.696;10.808;2023-01-31T13:18:28;98993.88;;;2.34;96.60
64080;BME280;51042;49.696;10.808;2023-01-31T13:20:55;98988.91;;;2.36;96.87
64080;BME280;51042;49.696;10.808;2023-01-31T13:23:28;98971.44;;;2.33;96.44
64080;BME280;51042;49.696;10.808;2023-01-31T13:26:02;98969.84;;;2.29;95.97
64080;BME280;51042;49.696;10.808;2023-01-31T13:28:38;98951.31;;;2.31;96.30
64080;BME280;51042;49.696;10.808;2023-01-31T13:31:08;98952.16;;;2.38;96.24
64080;BME280;51042;49.696;10.808;2023-01-31T13:33:36;98960.28;;;2.38;96.48
64080;BME280;51042;49.696;10.808;2023-01-31T13:38:33;98945.56;;;2.36;97.24
64080;BME280;51042;49.696;10.808;2023-01-31T13:41:01;98953.66;;;2.32;97.90
64080;BME280;51042;49.696;10.808;2023-01-31T13:43:27;98944.69;;;2.28;98.32
64080;BME280;51042;49.696;10.808;2023-01-31T13:45:54;98950.16;;;2.32;98.25
64080;BME280;51042;49.696;10.808;2023-01-31T13:50:54;98937.88;;;2.38;97.72
64080;BME280;51042;49.696;10.808;2023-01-31T13:53:24;98930.91;;;2.40;97.64
64080;BME280;51042;49.696;10.808;2023-01-31T13:55:51;98928.66;;;2.46;96.74
64080;BME280;51042;49.696;10.808;2023-01-31T13:58:49;98928.72;;;2.50;96.60
64080;BME280;51042;49.696;10.808;2023-01-31T14:01:12;98942.75;;;2.59;95.77
64080;BME280;51042;49.696;10.808;2023-01-31T14:06:23;98932.00;;;2.66;94.91
64080;BME280;51042;49.696;10.808;2023-01-31T14:09:20;98923.44;;;2.60;94.98
64080;BME280;51042;49.696;10.808;2023-01-31T14:11:46;98920.31;;;2.58;95.47
64080;BME280;51042;49.696;10.808;2023-01-31T14:14:19;98924.13;;;2.54;96.00
64080;BME280;51042;49.696;10.808;2023-01-31T14:16:44;98926.41;;;2.52;96.78
64080;BME280;51042;49.696;10.808;2023-01-31T14:21:50;98917.94;;;2.53;96.71
64080;BME280;51042;49.696;10.808;2023-01-31T14:24:19;98925.34;;;2.56;96.28
64080;BME280;51042;49.696;10.808;2023-01-31T14:31:38;98932.72;;;2.59;96.31
64080;BME280;51042;49.696;10.808;2023-01-31T14:34:03;98917.59;;;2.58;96.48
64080;BME280;51042;49.696;10.808;2023-01-31T14:41:41;98920.72;;;2.60;97.37
64080;BME280;51042;49.696;10.808;2023-01-31T14:44:24;98909.88;;;2.60;96.74